Charles Darwin — GDLS — position and weather

sailwx.info

Track history (hours):
 
Tides and Currents Weather Stations Pressure Air Temp Water Temp Dewpoint Dewpoint Depression Visibility Wind Speed Wind Dir Waves Ship Positions

Oceanographic research ship Charles Darwin (UK)

Detailed information on ship capabilities available from University of Delaware's Ocean Information Center.

Last reported at 2017-Jan-18 17:33 UTC. Time now 2017-Jan-18 22:18 UTC.
Position N 52°54' E 001°58'.

Length 70 m; draft 5.7 m.

Type: Cargo ship. MMSI: 235011460.

Date/timePositionNaut miles runAvg speedWind from/ knotsBaromVisibWave heightAir tempDewpointWater temp
2017-Jan-18 17:33N 52°54' E 001°58'8 7.9
2017-Jan-18 16:33N 52°59' E 001°47'9 8.8
2017-Jan-18 15:33N 53°04' E 001°35'9 8.6
2017-Jan-18 14:33N 53°09' E 001°24'51 9.7
2017-Jan-18 09:16N 53°33' E 000°07'6 8.3
2017-Jan-18 08:33N 53°35' W 000°02'1 1.5
2017-Jan-18 07:33N 53°35' W 000°04'0 0.0
2017-Jan-18 06:33N 53°35' W 000°04'0 0.0
2017-Jan-18 05:33N 53°35' W 000°04'0 0.0
2017-Jan-18 04:33N 53°35' W 000°04'0 0.0
2017-Jan-18 03:33N 53°35' W 000°04'0 0.0
2017-Jan-18 02:33N 53°35' W 000°04'0 0.0
2017-Jan-18 01:33N 53°35' W 000°04'0 0.0
2017-Jan-18 00:33N 53°35' W 000°04'0 0.0
2017-Jan-17 23:33N 53°35' W 000°04'0 0.0
2017-Jan-17 22:33N 53°35' W 000°04'0 0.0
2017-Jan-17 21:33N 53°35' W 000°04'0 0.0
2017-Jan-17 20:33N 53°35' W 000°04'0 0.0
2017-Jan-17 19:33N 53°35' W 000°04'0 0.0
2017-Jan-17 18:33N 53°35' W 000°04'0 0.0
2017-Jan-17 17:33N 53°35' W 000°04'0 0.0
2017-Jan-17 16:33N 53°35' W 000°04'0 0.0
2017-Jan-17 15:33N 53°35' W 000°04'0 0.0
2017-Jan-17 14:33N 53°35' W 000°04'0 0.0
2017-Jan-17 13:33N 53°35' W 000°04'0 0.0
2017-Jan-17 12:33N 53°35' W 000°04'0 0.0
2017-Jan-17 11:33N 53°35' W 000°04'0 0.0
2017-Jan-17 10:33N 53°35' W 000°04'0 0.0
2017-Jan-17 09:33N 53°35' W 000°04'0 0.0
2017-Jan-17 08:33N 53°35' W 000°04'3 3.4
2017-Jan-17 07:33N 53°35' E 000°01'3 0.2
2017-Jan-16 10:33N 53°34' E 000°06'1111.5
2017-Jan-16 09:33N 53°39' W 000°11'7 7.2
2017-Jan-16 08:33N 53°44' W 000°20'1 0.9
2017-Jan-16 07:31N 53°44' W 000°21'0 0.1
2017-Jan-16 06:31N 53°44' W 000°21'0 0.0
2017-Jan-16 05:28N 53°44' W 000°21'0 0.0
2017-Jan-16 04:31N 53°44' W 000°21'0 0.0
2017-Jan-16 03:28N 53°44' W 000°21'0 0.0
2017-Jan-16 02:31N 53°44' W 000°21'0 0.0
2017-Jan-16 01:31N 53°44' W 000°21'0 0.0
2017-Jan-16 00:31N 53°44' W 000°21'0 0.0
2017-Jan-15 23:31N 53°44' W 000°21'0 0.0
2017-Jan-15 22:31N 53°44' W 000°21'0 0.0
2017-Jan-15 21:34N 53°44' W 000°21'0 0.0
2017-Jan-15 20:34N 53°44' W 000°21'0 0.0
2017-Jan-15 19:31N 53°44' W 000°21'0 0.0
2017-Jan-15 18:31N 53°44' W 000°21'0 0.0
2017-Jan-15 17:31N 53°44' W 000°21'0 0.0
2017-Jan-15 16:34N 53°44' W 000°21'0 0.0
2017-Jan-15 15:31N 53°44' W 000°21'0 0.0
2017-Jan-15 14:34N 53°44' W 000°21'0 0.0
2017-Jan-15 13:34N 53°44' W 000°21'0 0.0
2017-Jan-15 12:34N 53°44' W 000°21'0 0.0
2017-Jan-15 11:33N 53°44' W 000°21'0 0.0
2017-Jan-15 10:28N 53°44' W 000°21'0 0.0
2017-Jan-15 09:34N 53°44' W 000°21'0 0.0
2017-Jan-15 08:33N 53°44' W 000°21'0 0.0
2017-Jan-15 07:30N 53°44' W 000°21'0 0.0
2017-Jan-15 06:24N 53°44' W 000°21'0 0.0
2017-Jan-15 05:31N 53°44' W 000°21'0 0.0
2017-Jan-15 04:34N 53°44' W 000°21'0 0.0
2017-Jan-15 03:27N 53°44' W 000°21'0 0.0
2017-Jan-15 02:33N 53°44' W 000°21'0 0.0
2017-Jan-15 01:33N 53°44' W 000°21'0 0.0
2017-Jan-15 00:33N 53°44' W 000°21'0 0.0
2017-Jan-14 23:31N 53°44' W 000°21'0 0.0
2017-Jan-14 22:33N 53°44' W 000°21'0 0.0
2017-Jan-14 21:33N 53°44' W 000°21'0 0.0
2017-Jan-14 20:30N 53°44' W 000°21'0 0.0
2017-Jan-14 19:34N 53°44' W 000°21'0 0.0
2017-Jan-14 18:33N 53°44' W 000°21'0 0.0
2017-Jan-14 17:31N 53°44' W 000°21'0 0.0
2017-Jan-14 16:33N 53°44' W 000°21'0 0.0
2017-Jan-14 15:33N 53°44' W 000°21'0 0.0
2017-Jan-14 14:33N 53°44' W 000°21'0 0.0
2017-Jan-14 13:34N 53°44' W 000°21'0 0.0
2017-Jan-14 12:33N 53°44' W 000°21'0 0.0
2017-Jan-14 11:30N 53°44' W 000°21'0 0.0
2017-Jan-14 10:33N 53°44' W 000°21'0 0.0
2017-Jan-14 09:31N 53°44' W 000°21'0 0.0
2017-Jan-14 08:33N 53°44' W 000°21'0 0.0
2017-Jan-14 07:33N 53°44' W 000°21'0 0.0
2017-Jan-14 06:33N 53°44' W 000°21'0 0.0
2017-Jan-14 05:33N 53°44' W 000°21'0 0.0
2017-Jan-14 04:33N 53°44' W 000°21'0 0.0
2017-Jan-14 03:33N 53°44' W 000°21'0 0.0
2017-Jan-13 23:33N 53°44' W 000°21'0 0.0
2017-Jan-13 22:33N 53°44' W 000°21'0 0.0
2017-Jan-13 21:30N 53°44' W 000°21'0 0.0
2017-Jan-13 20:33N 53°44' W 000°21'0 0.0
2017-Jan-13 19:33N 53°44' W 000°21'0 0.0
2017-Jan-13 18:33N 53°44' W 000°21'0 0.0
2017-Jan-13 17:33N 53°44' W 000°21'0 0.0
2017-Jan-13 16:33N 53°44' W 000°21'0 0.0
2017-Jan-13 15:33N 53°44' W 000°21'0 0.0
2017-Jan-13 14:33N 53°44' W 000°21'0 0.0
2017-Jan-13 13:33N 53°44' W 000°21'0 0.0
2017-Jan-13 12:33N 53°44' W 000°21'0 0.0
2017-Jan-13 11:33N 53°44' W 000°21'0 0.0
2017-Jan-13 10:33N 53°44' W 000°21'0 0.0
2017-Jan-13 09:30N 53°44' W 000°21'0 0.0
2017-Jan-13 08:33N 53°44' W 000°21'0 0.0
2017-Jan-13 07:33N 53°44' W 000°21'0 0.0
2017-Jan-13 06:33N 53°44' W 000°21'0 0.0
2017-Jan-13 05:27N 53°44' W 000°21'0 0.0
2017-Jan-13 04:33N 53°44' W 000°21'0 0.0
2017-Jan-13 03:33N 53°44' W 000°21'0 0.0
2017-Jan-13 02:33N 53°44' W 000°21'0 0.0
2017-Jan-13 01:33N 53°44' W 000°21'0 0.0
2017-Jan-13 00:33N 53°44' W 000°21'0 0.0
2017-Jan-12 23:33N 53°44' W 000°21'0 0.0
2017-Jan-12 22:33N 53°44' W 000°21'0 0.0
2017-Jan-12 21:33N 53°44' W 000°21'0 0.0
2017-Jan-12 20:27N 53°44' W 000°21'0 0.0
2017-Jan-12 19:33N 53°44' W 000°21'0 0.0
2017-Jan-12 18:33N 53°44' W 000°21'0 0.0
2017-Jan-12 17:33N 53°44' W 000°21'0 0.0
2017-Jan-12 16:33N 53°44' W 000°21'0 0.0
2017-Jan-12 15:33N 53°44' W 000°21'0 0.0
2017-Jan-12 14:33N 53°44' W 000°21'0 0.0
2017-Jan-12 13:33N 53°44' W 000°21'0 0.0
2017-Jan-12 12:33N 53°44' W 000°21'0 0.0
2017-Jan-12 11:33N 53°44' W 000°21'0 0.0
2017-Jan-12 10:33N 53°44' W 000°21'0 0.0
2017-Jan-12 09:33N 53°44' W 000°21'0 0.0
2017-Jan-12 08:33N 53°44' W 000°21'0 0.0
2017-Jan-12 07:33N 53°44' W 000°21'0 0.0
2017-Jan-12 06:33N 53°44' W 000°21'0 0.0
2017-Jan-12 05:33N 53°44' W 000°21'0 0.0
2017-Jan-12 04:33N 53°44' W 000°21'0 0.0
2017-Jan-12 03:33N 53°44' W 000°21'0 0.0
2017-Jan-12 02:33N 53°44' W 000°21'0 0.0
2017-Jan-12 01:33N 53°44' W 000°21'0 0.0
2017-Jan-12 00:33N 53°44' W 000°21'0 0.0
2017-Jan-11 23:33N 53°44' W 000°21'0 0.0
2017-Jan-11 22:33N 53°44' W 000°21'0 0.0
2017-Jan-11 21:33N 53°44' W 000°21'0 0.0
2017-Jan-11 20:33N 53°44' W 000°21'0 0.0
2017-Jan-11 19:33N 53°44' W 000°21'0 0.0
2017-Jan-11 18:33N 53°44' W 000°21'0 0.0
2017-Jan-11 17:33N 53°44' W 000°21'0 0.0
2017-Jan-11 16:33N 53°44' W 000°21'0 0.0
2017-Jan-11 15:33N 53°44' W 000°21'0 0.0
2017-Jan-11 14:30N 53°44' W 000°21'0 0.0
2017-Jan-11 13:33N 53°44' W 000°21'0 0.0
2017-Jan-11 12:33N 53°44' W 000°21'0 0.0
2017-Jan-11 11:33N 53°44' W 000°21'0 0.0
2017-Jan-11 10:33N 53°44' W 000°21'0 0.0
2017-Jan-11 09:33N 53°44' W 000°21'0 0.0
2017-Jan-11 08:33N 53°44' W 000°21'0 0.0
2017-Jan-11 07:33N 53°44' W 000°21'0 0.0
2017-Jan-11 06:33N 53°44' W 000°21'0 0.0
2017-Jan-11 05:33N 53°44' W 000°21'0 0.0
2017-Jan-11 04:33N 53°44' W 000°21'0 0.0
2017-Jan-11 03:33N 53°44' W 000°21'0 0.0
2017-Jan-11 02:30N 53°44' W 000°21'0 0.0
2017-Jan-11 01:33N 53°44' W 000°21'0 0.0
2017-Jan-11 00:33N 53°44' W 000°21'0 0.0
2017-Jan-10 23:33N 53°44' W 000°21'0 0.0
2017-Jan-10 22:33N 53°44' W 000°21'0 0.0
2017-Jan-10 21:33N 53°44' W 000°21'0 0.0
2017-Jan-10 20:33N 53°44' W 000°21'0 0.0
2017-Jan-10 19:33N 53°44' W 000°21'0 0.0
2017-Jan-10 18:33N 53°44' W 000°21'0 0.0
2017-Jan-10 17:33N 53°44' W 000°21'0 0.0
2017-Jan-10 16:33N 53°44' W 000°21'0 0.0
2017-Jan-10 15:33N 53°44' W 000°21'0 0.0
2017-Jan-10 14:30N 53°44' W 000°21'0 0.0
2017-Jan-10 13:33N 53°44' W 000°21'0 0.0
2017-Jan-10 12:33N 53°44' W 000°21'0 0.0
2017-Jan-10 11:33N 53°44' W 000°21'0 0.1
2017-Jan-10 10:33N 53°44' W 000°21'0 0.0
2017-Jan-10 09:33N 53°44' W 000°21'0 0.0
2017-Jan-10 08:30N 53°44' W 000°21'0 0.0
2017-Jan-10 07:33N 53°44' W 000°21'0 0.0
2017-Jan-10 06:33N 53°44' W 000°21'0 0.0
2017-Jan-10 05:33N 53°44' W 000°21'0 0.0
2017-Jan-10 04:33N 53°44' W 000°21'0 0.0
2017-Jan-10 03:33N 53°44' W 000°21'0 0.0
2017-Jan-10 02:30N 53°44' W 000°21'0 0.0
2017-Jan-10 01:33N 53°44' W 000°21'0 0.0
2017-Jan-10 00:30N 53°44' W 000°21'0 0.0
2017-Jan-09 23:33N 53°44' W 000°21'0 0.0
2017-Jan-09 22:30N 53°44' W 000°21'0 0.0
2017-Jan-09 21:33N 53°44' W 000°21'0 0.0
2017-Jan-09 20:33N 53°44' W 000°21'0 0.0
2017-Jan-09 19:33N 53°44' W 000°21'0 0.0
2017-Jan-09 18:33N 53°44' W 000°21'0 0.0
2017-Jan-09 17:33N 53°44' W 000°21'0 0.0
2017-Jan-09 16:33N 53°44' W 000°21'0 0.0
2017-Jan-09 15:33N 53°44' W 000°21'0 0.0
2017-Jan-09 14:33N 53°44' W 000°21'0 0.0
2017-Jan-09 13:30N 53°44' W 000°21'0 0.0
2017-Jan-09 12:33N 53°44' W 000°21'0 0.0
2017-Jan-09 11:30N 53°44' W 000°21'0 0.0
2017-Jan-09 10:33N 53°44' W 000°21'0 0.0
2017-Jan-09 09:33N 53°44' W 000°21'0 0.0
2017-Jan-09 08:27N 53°44' W 000°21'0 0.0
2017-Jan-09 07:33N 53°44' W 000°21'0 0.0
2017-Jan-09 06:33N 53°44' W 000°21'0 0.0
2017-Jan-09 05:33N 53°44' W 000°21'0 0.0
2017-Jan-09 04:33N 53°44' W 000°21'0 0.0
2017-Jan-09 03:33N 53°44' W 000°21'0 0.0
2017-Jan-09 02:33N 53°44' W 000°21'0 0.0
2017-Jan-09 01:33N 53°44' W 000°21'0 0.0
2017-Jan-09 00:33N 53°44' W 000°21'0 0.0
2017-Jan-08 23:33N 53°44' W 000°21'0 0.0
2017-Jan-08 22:33N 53°44' W 000°21'0 0.0
2017-Jan-08 21:33N 53°44' W 000°21'0 0.0
2017-Jan-08 20:33N 53°44' W 000°21'0 0.0
2017-Jan-08 19:33N 53°44' W 000°21'0 0.0
2017-Jan-08 18:33N 53°44' W 000°21'  
Track history (hours):
 
Tides and Currents Weather Stations Pressure Air Temp Water Temp Dewpoint Dewpoint Depression Visibility Wind Speed Wind Dir Waves Ship Positions

Oceanographic research ship Charles Darwin (UK)

Detailed information on ship capabilities available from University of Delaware's Ocean Information Center.

Last reported at 2017-Jan-18 17:33 UTC. Time now 2017-Jan-18 22:18 UTC.
Position N 52°54' E 001°58'.

Length 70 m; draft 5.7 m.

Type: Cargo ship. MMSI: 235011460.

Date/timePositionNaut miles runAvg speedWind from/ knotsBaromVisibWave heightAir tempDewpointWater temp
2017-Jan-18 17:33N 52°54' E 001°58'8 7.9
2017-Jan-18 16:33N 52°59' E 001°47'9 8.8
2017-Jan-18 15:33N 53°04' E 001°35'9 8.6
2017-Jan-18 14:33N 53°09' E 001°24'51 9.7
2017-Jan-18 09:16N 53°33' E 000°07'6 8.3
2017-Jan-18 08:33N 53°35' W 000°02'1 1.5
2017-Jan-18 07:33N 53°35' W 000°04'0 0.0
2017-Jan-18 06:33N 53°35' W 000°04'0 0.0
2017-Jan-18 05:33N 53°35' W 000°04'0 0.0
2017-Jan-18 04:33N 53°35' W 000°04'0 0.0
2017-Jan-18 03:33N 53°35' W 000°04'0 0.0
2017-Jan-18 02:33N 53°35' W 000°04'0 0.0
2017-Jan-18 01:33N 53°35' W 000°04'0 0.0
2017-Jan-18 00:33N 53°35' W 000°04'0 0.0
2017-Jan-17 23:33N 53°35' W 000°04'0 0.0
2017-Jan-17 22:33N 53°35' W 000°04'0 0.0
2017-Jan-17 21:33N 53°35' W 000°04'0 0.0
2017-Jan-17 20:33N 53°35' W 000°04'0 0.0
2017-Jan-17 19:33N 53°35' W 000°04'0 0.0
2017-Jan-17 18:33N 53°35' W 000°04'0 0.0
2017-Jan-17 17:33N 53°35' W 000°04'0 0.0
2017-Jan-17 16:33N 53°35' W 000°04'0 0.0
2017-Jan-17 15:33N 53°35' W 000°04'0 0.0
2017-Jan-17 14:33N 53°35' W 000°04'0 0.0
2017-Jan-17 13:33N 53°35' W 000°04'0 0.0
2017-Jan-17 12:33N 53°35' W 000°04'0 0.0
2017-Jan-17 11:33N 53°35' W 000°04'0 0.0
2017-Jan-17 10:33N 53°35' W 000°04'0 0.0
2017-Jan-17 09:33N 53°35' W 000°04'0 0.0
2017-Jan-17 08:33N 53°35' W 000°04'3 3.4
2017-Jan-17 07:33N 53°35' E 000°01'3 0.2
2017-Jan-16 10:33N 53°34' E 000°06'1111.5
2017-Jan-16 09:33N 53°39' W 000°11'7 7.2
2017-Jan-16 08:33N 53°44' W 000°20'1 0.9
2017-Jan-16 07:31N 53°44' W 000°21'0 0.1
2017-Jan-16 06:31N 53°44' W 000°21'0 0.0
2017-Jan-16 05:28N 53°44' W 000°21'0 0.0
2017-Jan-16 04:31N 53°44' W 000°21'0 0.0
2017-Jan-16 03:28N 53°44' W 000°21'0 0.0
2017-Jan-16 02:31N 53°44' W 000°21'0 0.0
2017-Jan-16 01:31N 53°44' W 000°21'0 0.0
2017-Jan-16 00:31N 53°44' W 000°21'0 0.0
2017-Jan-15 23:31N 53°44' W 000°21'0 0.0
2017-Jan-15 22:31N 53°44' W 000°21'0 0.0
2017-Jan-15 21:34N 53°44' W 000°21'0 0.0
2017-Jan-15 20:34N 53°44' W 000°21'0 0.0
2017-Jan-15 19:31N 53°44' W 000°21'0 0.0
2017-Jan-15 18:31N 53°44' W 000°21'0 0.0
2017-Jan-15 17:31N 53°44' W 000°21'0 0.0
2017-Jan-15 16:34N 53°44' W 000°21'0 0.0
2017-Jan-15 15:31N 53°44' W 000°21'0 0.0
2017-Jan-15 14:34N 53°44' W 000°21'0 0.0
2017-Jan-15 13:34N 53°44' W 000°21'0 0.0
2017-Jan-15 12:34N 53°44' W 000°21'0 0.0
2017-Jan-15 11:33N 53°44' W 000°21'0 0.0
2017-Jan-15 10:28N 53°44' W 000°21'0 0.0
2017-Jan-15 09:34N 53°44' W 000°21'0 0.0
2017-Jan-15 08:33N 53°44' W 000°21'0 0.0
2017-Jan-15 07:30N 53°44' W 000°21'0 0.0
2017-Jan-15 06:24N 53°44' W 000°21'0 0.0
2017-Jan-15 05:31N 53°44' W 000°21'0 0.0
2017-Jan-15 04:34N 53°44' W 000°21'0 0.0
2017-Jan-15 03:27N 53°44' W 000°21'0 0.0
2017-Jan-15 02:33N 53°44' W 000°21'0 0.0
2017-Jan-15 01:33N 53°44' W 000°21'0 0.0
2017-Jan-15 00:33N 53°44' W 000°21'0 0.0
2017-Jan-14 23:31N 53°44' W 000°21'0 0.0
2017-Jan-14 22:33N 53°44' W 000°21'0 0.0
2017-Jan-14 21:33N 53°44' W 000°21'0 0.0
2017-Jan-14 20:30N 53°44' W 000°21'0 0.0
2017-Jan-14 19:34N 53°44' W 000°21'0 0.0
2017-Jan-14 18:33N 53°44' W 000°21'0 0.0
2017-Jan-14 17:31N 53°44' W 000°21'0 0.0
2017-Jan-14 16:33N 53°44' W 000°21'0 0.0
2017-Jan-14 15:33N 53°44' W 000°21'0 0.0
2017-Jan-14 14:33N 53°44' W 000°21'0 0.0
2017-Jan-14 13:34N 53°44' W 000°21'0 0.0
2017-Jan-14 12:33N 53°44' W 000°21'0 0.0
2017-Jan-14 11:30N 53°44' W 000°21'0 0.0
2017-Jan-14 10:33N 53°44' W 000°21'0 0.0
2017-Jan-14 09:31N 53°44' W 000°21'0 0.0
2017-Jan-14 08:33N 53°44' W 000°21'0 0.0
2017-Jan-14 07:33N 53°44' W 000°21'0 0.0
2017-Jan-14 06:33N 53°44' W 000°21'0 0.0
2017-Jan-14 05:33N 53°44' W 000°21'0 0.0
2017-Jan-14 04:33N 53°44' W 000°21'0 0.0
2017-Jan-14 03:33N 53°44' W 000°21'0 0.0
2017-Jan-13 23:33N 53°44' W 000°21'0 0.0
2017-Jan-13 22:33N 53°44' W 000°21'0 0.0
2017-Jan-13 21:30N 53°44' W 000°21'0 0.0
2017-Jan-13 20:33N 53°44' W 000°21'0 0.0
2017-Jan-13 19:33N 53°44' W 000°21'0 0.0
2017-Jan-13 18:33N 53°44' W 000°21'0 0.0
2017-Jan-13 17:33N 53°44' W 000°21'0 0.0
2017-Jan-13 16:33N 53°44' W 000°21'0 0.0
2017-Jan-13 15:33N 53°44' W 000°21'0 0.0
2017-Jan-13 14:33N 53°44' W 000°21'0 0.0
2017-Jan-13 13:33N 53°44' W 000°21'0 0.0
2017-Jan-13 12:33N 53°44' W 000°21'0 0.0
2017-Jan-13 11:33N 53°44' W 000°21'0 0.0
2017-Jan-13 10:33N 53°44' W 000°21'0 0.0
2017-Jan-13 09:30N 53°44' W 000°21'0 0.0
2017-Jan-13 08:33N 53°44' W 000°21'0 0.0
2017-Jan-13 07:33N 53°44' W 000°21'0 0.0
2017-Jan-13 06:33N 53°44' W 000°21'0 0.0
2017-Jan-13 05:27N 53°44' W 000°21'0 0.0
2017-Jan-13 04:33N 53°44' W 000°21'0 0.0
2017-Jan-13 03:33N 53°44' W 000°21'0 0.0
2017-Jan-13 02:33N 53°44' W 000°21'0 0.0
2017-Jan-13 01:33N 53°44' W 000°21'0 0.0
2017-Jan-13 00:33N 53°44' W 000°21'0 0.0
2017-Jan-12 23:33N 53°44' W 000°21'0 0.0
2017-Jan-12 22:33N 53°44' W 000°21'0 0.0
2017-Jan-12 21:33N 53°44' W 000°21'0 0.0
2017-Jan-12 20:27N 53°44' W 000°21'0 0.0
2017-Jan-12 19:33N 53°44' W 000°21'0 0.0
2017-Jan-12 18:33N 53°44' W 000°21'0 0.0
2017-Jan-12 17:33N 53°44' W 000°21'0 0.0
2017-Jan-12 16:33N 53°44' W 000°21'0 0.0
2017-Jan-12 15:33N 53°44' W 000°21'0 0.0
2017-Jan-12 14:33N 53°44' W 000°21'0 0.0
2017-Jan-12 13:33N 53°44' W 000°21'0 0.0
2017-Jan-12 12:33N 53°44' W 000°21'0 0.0
2017-Jan-12 11:33N 53°44' W 000°21'0 0.0
2017-Jan-12 10:33N 53°44' W 000°21'0 0.0
2017-Jan-12 09:33N 53°44' W 000°21'0 0.0
2017-Jan-12 08:33N 53°44' W 000°21'0 0.0
2017-Jan-12 07:33N 53°44' W 000°21'0 0.0
2017-Jan-12 06:33N 53°44' W 000°21'0 0.0
2017-Jan-12 05:33N 53°44' W 000°21'0 0.0
2017-Jan-12 04:33N 53°44' W 000°21'0 0.0
2017-Jan-12 03:33N 53°44' W 000°21'0 0.0
2017-Jan-12 02:33N 53°44' W 000°21'0 0.0
2017-Jan-12 01:33N 53°44' W 000°21'0 0.0
2017-Jan-12 00:33N 53°44' W 000°21'0 0.0
2017-Jan-11 23:33N 53°44' W 000°21'0 0.0
2017-Jan-11 22:33N 53°44' W 000°21'0 0.0
2017-Jan-11 21:33N 53°44' W 000°21'0 0.0
2017-Jan-11 20:33N 53°44' W 000°21'0 0.0
2017-Jan-11 19:33N 53°44' W 000°21'0 0.0
2017-Jan-11 18:33N 53°44' W 000°21'0 0.0
2017-Jan-11 17:33N 53°44' W 000°21'0 0.0
2017-Jan-11 16:33N 53°44' W 000°21'0 0.0
2017-Jan-11 15:33N 53°44' W 000°21'0 0.0
2017-Jan-11 14:30N 53°44' W 000°21'0 0.0
2017-Jan-11 13:33N 53°44' W 000°21'0 0.0
2017-Jan-11 12:33N 53°44' W 000°21'0 0.0
2017-Jan-11 11:33N 53°44' W 000°21'0 0.0
2017-Jan-11 10:33N 53°44' W 000°21'0 0.0
2017-Jan-11 09:33N 53°44' W 000°21'0 0.0
2017-Jan-11 08:33N 53°44' W 000°21'0 0.0
2017-Jan-11 07:33N 53°44' W 000°21'0 0.0
2017-Jan-11 06:33N 53°44' W 000°21'0 0.0
2017-Jan-11 05:33N 53°44' W 000°21'0 0.0
2017-Jan-11 04:33N 53°44' W 000°21'0 0.0
2017-Jan-11 03:33N 53°44' W 000°21'0 0.0
2017-Jan-11 02:30N 53°44' W 000°21'0 0.0
2017-Jan-11 01:33N 53°44' W 000°21'0 0.0
2017-Jan-11 00:33N 53°44' W 000°21'0 0.0
2017-Jan-10 23:33N 53°44' W 000°21'0 0.0
2017-Jan-10 22:33N 53°44' W 000°21'0 0.0
2017-Jan-10 21:33N 53°44' W 000°21'0 0.0
2017-Jan-10 20:33N 53°44' W 000°21'0 0.0
2017-Jan-10 19:33N 53°44' W 000°21'0 0.0
2017-Jan-10 18:33N 53°44' W 000°21'0 0.0
2017-Jan-10 17:33N 53°44' W 000°21'0 0.0
2017-Jan-10 16:33N 53°44' W 000°21'0 0.0
2017-Jan-10 15:33N 53°44' W 000°21'0 0.0
2017-Jan-10 14:30N 53°44' W 000°21'0 0.0
2017-Jan-10 13:33N 53°44' W 000°21'0 0.0
2017-Jan-10 12:33N 53°44' W 000°21'0 0.0
2017-Jan-10 11:33N 53°44' W 000°21'0 0.1
2017-Jan-10 10:33N 53°44' W 000°21'0 0.0
2017-Jan-10 09:33N 53°44' W 000°21'0 0.0
2017-Jan-10 08:30N 53°44' W 000°21'0 0.0
2017-Jan-10 07:33N 53°44' W 000°21'0 0.0
2017-Jan-10 06:33N 53°44' W 000°21'0 0.0
2017-Jan-10 05:33N 53°44' W 000°21'0 0.0
2017-Jan-10 04:33N 53°44' W 000°21'0 0.0
2017-Jan-10 03:33N 53°44' W 000°21'0 0.0
2017-Jan-10 02:30N 53°44' W 000°21'0 0.0
2017-Jan-10 01:33N 53°44' W 000°21'0 0.0
2017-Jan-10 00:30N 53°44' W 000°21'0 0.0
2017-Jan-09 23:33N 53°44' W 000°21'0 0.0
2017-Jan-09 22:30N 53°44' W 000°21'0 0.0
2017-Jan-09 21:33N 53°44' W 000°21'0 0.0
2017-Jan-09 20:33N 53°44' W 000°21'0 0.0
2017-Jan-09 19:33N 53°44' W 000°21'0 0.0
2017-Jan-09 18:33N 53°44' W 000°21'0 0.0
2017-Jan-09 17:33N 53°44' W 000°21'0 0.0
2017-Jan-09 16:33N 53°44' W 000°21'0 0.0
2017-Jan-09 15:33N 53°44' W 000°21'0 0.0
2017-Jan-09 14:33N 53°44' W 000°21'0 0.0
2017-Jan-09 13:30N 53°44' W 000°21'0 0.0
2017-Jan-09 12:33N 53°44' W 000°21'0 0.0
2017-Jan-09 11:30N 53°44' W 000°21'0 0.0
2017-Jan-09 10:33N 53°44' W 000°21'0 0.0
2017-Jan-09 09:33N 53°44' W 000°21'0 0.0
2017-Jan-09 08:27N 53°44' W 000°21'0 0.0
2017-Jan-09 07:33N 53°44' W 000°21'0 0.0
2017-Jan-09 06:33N 53°44' W 000°21'0 0.0
2017-Jan-09 05:33N 53°44' W 000°21'0 0.0
2017-Jan-09 04:33N 53°44' W 000°21'0 0.0
2017-Jan-09 03:33N 53°44' W 000°21'0 0.0
2017-Jan-09 02:33N 53°44' W 000°21'0 0.0
2017-Jan-09 01:33N 53°44' W 000°21'0 0.0
2017-Jan-09 00:33N 53°44' W 000°21'0 0.0
2017-Jan-08 23:33N 53°44' W 000°21'0 0.0
2017-Jan-08 22:33N 53°44' W 000°21'0 0.0
2017-Jan-08 21:33N 53°44' W 000°21'0 0.0
2017-Jan-08 20:33N 53°44' W 000°21'0 0.0
2017-Jan-08 19:33N 53°44' W 000°21'0 0.0
2017-Jan-08 18:33N 53°44' W 000°21'  

Dump ship's entire track history